createdAt,value
2018-04-19T00:02:08.030Z,102839.36
2018-04-19T00:04:35.626Z,102839.77
2018-04-19T00:07:03.217Z,102835.08
2018-04-19T00:09:30.743Z,102834.47
2018-04-19T00:11:58.320Z,102843.80
2018-04-19T00:14:25.843Z,102841.14
2018-04-19T00:16:53.369Z,102843.50
2018-04-19T00:19:20.925Z,102845.05
2018-04-19T00:21:48.524Z,102846.68
2018-04-19T00:24:16.065Z,102848.45
2018-04-19T00:26:43.589Z,102845.24
2018-04-19T00:29:11.112Z,102848.98
2018-04-19T00:31:38.631Z,102848.25
2018-04-19T00:34:06.232Z,102847.64
2018-04-19T00:36:33.756Z,102842.83
2018-04-19T00:39:01.357Z,102846.74
2018-04-19T00:41:28.891Z,102845.84
2018-04-19T00:43:56.418Z,102848.42
2018-04-19T00:46:23.952Z,102844.95
2018-04-19T00:48:51.588Z,102845.66
2018-04-19T00:51:19.124Z,102846.66
2018-04-19T00:53:46.652Z,102839.70
2018-04-19T00:56:14.176Z,102846.22
2018-04-19T00:58:41.717Z,102839.94
2018-04-19T01:01:09.293Z,102840.83
2018-04-19T01:03:36.819Z,102841.94
2018-04-19T01:06:04.342Z,102839.94
2018-04-19T01:08:31.873Z,102836.39
2018-04-19T01:10:59.396Z,102832.85
2018-04-19T01:13:26.916Z,102832.47
2018-04-19T01:15:54.445Z,102826.63
2018-04-19T01:18:21.989Z,102824.66
2018-04-19T01:20:49.524Z,102823.23
2018-04-19T01:23:17.056Z,102824.43
2018-04-19T01:25:44.582Z,102823.50
2018-04-19T01:28:12.103Z,102825.80
2018-04-19T01:30:39.705Z,102816.05
2018-04-19T01:33:07.239Z,102813.90
2018-04-19T01:35:46.604Z,102814.59
2018-04-19T01:38:14.145Z,102810.36
2018-04-19T01:40:41.699Z,102808.98
2018-04-19T01:43:09.225Z,102807.66
2018-04-19T01:45:36.770Z,102800.67
2018-04-19T01:48:04.299Z,102799.26
2018-04-19T01:50:31.859Z,102803.61
2018-04-19T01:52:59.392Z,102798.33
2018-04-19T01:55:26.917Z,102802.98
2018-04-19T01:57:54.465Z,102799.28
2018-04-19T02:00:21.983Z,102799.81
2018-04-19T02:02:49.509Z,102801.44
2018-04-19T02:05:17.047Z,102805.84
2018-04-19T02:07:44.676Z,102800.06
2018-04-19T02:10:12.212Z,102803.49
2018-04-19T02:12:39.753Z,102796.39
2018-04-19T02:15:07.359Z,102794.17
2018-04-19T02:17:34.889Z,102795.55
2018-04-19T02:20:02.432Z,102795.51
2018-04-19T02:22:29.968Z,102793.71
2018-04-19T02:24:57.493Z,102784.95
2018-04-19T02:27:25.023Z,102788.15
2018-04-19T02:29:52.543Z,102792.10
2018-04-19T02:32:20.080Z,102795.39
2018-04-19T02:34:47.619Z,102784.23
2018-04-19T02:37:15.156Z,102786.34
2018-04-19T02:39:42.683Z,102788.05
2018-04-19T02:42:10.212Z,102788.54
2018-04-19T02:44:37.740Z,102785.59
2018-04-19T02:47:05.280Z,102779.84
2018-04-19T02:49:32.820Z,102782.24
2018-04-19T02:52:00.955Z,102790.73
2018-04-19T02:54:28.519Z,102785.69
2018-04-19T02:56:56.053Z,102783.34
2018-04-19T02:59:23.593Z,102784.30
2018-04-19T03:01:51.132Z,102780.70
2018-04-19T03:04:18.672Z,102778.13
2018-04-19T03:06:46.214Z,102776.08
2018-04-19T03:09:13.751Z,102778.89
2018-04-19T03:11:41.294Z,102776.73
2018-04-19T03:14:08.826Z,102777.88
2018-04-19T03:16:36.456Z,102779.03
2018-04-19T03:19:04.859Z,102779.08
2018-04-19T03:21:32.393Z,102783.88
2018-04-19T03:23:59.925Z,102783.34
2018-04-19T03:26:27.515Z,102781.00
2018-04-19T03:28:55.090Z,102784.12
2018-04-19T03:31:22.601Z,102784.31
2018-04-19T03:33:50.168Z,102791.02
2018-04-19T03:36:17.755Z,102791.02
2018-04-19T03:38:45.291Z,102789.58
2018-04-19T03:41:12.815Z,102782.80
2018-04-19T03:43:40.435Z,102788.25
2018-04-19T03:46:07.963Z,102791.75
2018-04-19T03:48:35.560Z,102789.58
2018-04-19T03:51:03.115Z,102784.14
2018-04-19T03:53:30.640Z,102790.56
2018-04-19T03:55:58.164Z,102795.56
2018-04-19T03:58:25.778Z,102794.38
2018-04-19T04:00:53.306Z,102794.11
2018-04-19T04:03:20.837Z,102800.58
2018-04-19T04:05:48.359Z,102796.98
2018-04-19T04:08:15.980Z,102798.48
2018-04-19T04:10:43.491Z,102789.96
2018-04-19T04:13:11.016Z,102796.77
2018-04-19T04:15:38.612Z,102793.41
2018-04-19T04:18:17.846Z,102793.61
2018-04-19T04:20:57.340Z,102796.34
2018-04-19T04:23:40.724Z,102789.64
2018-04-19T04:26:08.258Z,102791.91
2018-04-19T04:28:35.782Z,102786.23
2018-04-19T04:31:03.341Z,102792.83
2018-04-19T04:33:30.889Z,102804.24
2018-04-19T04:35:58.421Z,102807.06
2018-04-19T04:38:25.939Z,102806.95
2018-04-19T04:40:53.468Z,102813.61
2018-04-19T04:43:21.096Z,102809.63
2018-04-19T04:45:48.621Z,102807.16
2018-04-19T04:48:16.157Z,102811.62
2018-04-19T04:50:43.685Z,102808.43
2018-04-19T04:53:11.218Z,102810.02
2018-04-19T04:55:38.756Z,102816.00
2018-04-19T04:58:06.281Z,102822.81
2018-04-19T05:00:33.795Z,102824.90
2018-04-19T05:03:01.332Z,102823.39
2018-04-19T05:05:28.857Z,102815.67
2018-04-19T05:07:56.389Z,102818.00
2018-04-19T05:10:23.912Z,102816.34
2018-04-19T05:12:51.449Z,102820.11
2018-04-19T05:15:19.034Z,102819.73
2018-04-19T05:17:46.572Z,102818.30
2018-04-19T05:20:14.290Z,102826.34
2018-04-19T05:22:41.935Z,102824.81
2018-04-19T05:25:09.476Z,102822.79
2018-04-19T05:27:37.004Z,102820.38
2018-04-19T05:30:04.572Z,102818.72
2018-04-19T05:32:32.117Z,102813.15
2018-04-19T05:34:59.647Z,102825.20
2018-04-19T05:37:27.179Z,102821.66
2018-04-19T05:39:54.781Z,102824.53
2018-04-19T05:42:22.329Z,102826.87
2018-04-19T07:00:51.842Z,102807.62
2018-04-19T07:03:19.400Z,102804.69
2018-04-19T07:05:46.940Z,102808.60
2018-04-19T07:08:14.459Z,102806.44
2018-04-19T07:10:41.993Z,102809.75
2018-04-19T07:13:09.537Z,102810.41
2018-04-19T07:15:37.109Z,102812.91
2018-04-19T07:18:04.642Z,102809.39
2018-04-19T07:20:32.235Z,102808.12
2018-04-19T07:22:59.753Z,102812.08
2018-04-19T07:25:27.287Z,102798.39
2018-04-19T07:27:54.834Z,102795.70
2018-04-19T07:30:22.378Z,102792.96
2018-04-19T07:32:49.917Z,102795.65
2018-04-19T07:35:17.468Z,102794.36
2018-04-19T07:37:45.047Z,102798.54
2018-04-19T07:40:12.612Z,102794.20
2018-04-19T07:42:40.171Z,102793.30
2018-04-19T07:45:07.696Z,102793.97
2018-04-19T07:47:35.224Z,102800.05
2018-04-19T07:50:02.746Z,102792.69
2018-04-19T07:52:30.310Z,102795.68
2018-04-19T07:54:58.542Z,102797.30
2018-04-19T07:57:26.078Z,102798.89
2018-04-19T07:59:53.632Z,102805.69
2018-04-19T08:02:21.261Z,102800.41
2018-04-19T08:04:48.915Z,102805.52
2018-04-19T08:07:16.494Z,102800.84
2018-04-19T08:09:44.049Z,102798.32
2018-04-19T08:12:11.588Z,102803.09
2018-04-19T08:14:39.108Z,102799.73
2018-04-19T08:17:06.658Z,102801.23
2018-04-19T08:19:34.289Z,102803.04
2018-04-19T08:22:01.851Z,102802.45
2018-04-19T08:24:29.432Z,102808.03
2018-04-19T08:26:57.059Z,102803.43
2018-04-19T08:29:24.579Z,102794.73
2018-04-19T08:31:52.125Z,102802.14
2018-04-19T08:34:19.636Z,102802.66
2018-04-19T08:36:47.168Z,102801.30
2018-04-19T08:39:14.708Z,102802.17
2018-04-19T08:41:42.253Z,102794.08
2018-04-19T08:44:09.890Z,102798.45
2018-04-19T08:46:37.415Z,102796.70
2018-04-19T08:49:04.937Z,102796.86
2018-04-19T08:51:32.467Z,102788.64
2018-04-19T08:53:59.997Z,102791.41
2018-04-19T08:56:27.568Z,102785.84
2018-04-19T08:58:55.100Z,102796.95
2018-04-19T09:01:22.631Z,102791.91
2018-04-19T09:03:50.268Z,102785.97
2018-04-19T09:06:17.784Z,102793.98
2018-04-19T09:08:45.387Z,102792.64
2018-04-19T09:11:12.948Z,102798.09
2018-04-19T09:13:40.503Z,102791.12
2018-04-19T09:16:08.022Z,102791.77
2018-04-19T09:18:35.623Z,102790.75
2018-04-19T09:21:03.184Z,102788.58
2018-04-19T09:23:30.704Z,102789.66
2018-04-19T09:25:58.307Z,102791.36
2018-04-19T09:28:25.878Z,102788.23
2018-04-19T09:30:53.399Z,102789.27
2018-04-19T09:33:20.940Z,102791.20
2018-04-19T09:35:48.481Z,102792.19
2018-04-19T09:38:16.004Z,102786.66
2018-04-19T09:40:43.519Z,102795.52
2018-04-19T09:43:11.050Z,102789.45
2018-04-19T09:45:38.582Z,102788.80
2018-04-19T09:48:06.123Z,102788.41
2018-04-19T09:50:33.654Z,102789.63
2018-04-19T09:53:01.187Z,102795.45
2018-04-19T09:55:28.719Z,102793.25
2018-04-19T09:58:08.091Z,102789.54
2018-04-19T10:00:41.307Z,102793.81
2018-04-19T10:03:08.835Z,102784.99
2018-04-19T10:08:35.055Z,102791.24
2018-04-19T10:11:02.581Z,102782.43
2018-04-19T10:13:30.099Z,102784.97
2018-04-19T10:15:57.650Z,102792.30
2018-04-19T10:18:25.193Z,102791.42
2018-04-19T10:20:52.731Z,102779.64
2018-04-19T10:23:20.248Z,102779.70
2018-04-19T10:25:47.771Z,102771.42
2018-04-19T10:28:15.296Z,102780.75
2018-04-19T10:30:42.820Z,102780.24
2018-04-19T10:33:10.344Z,102771.24
2018-04-19T10:35:37.884Z,102775.05
2018-04-19T10:38:05.470Z,102775.45
2018-04-19T10:40:33.000Z,102771.02
2018-04-19T10:43:00.525Z,102770.56
2018-04-19T10:45:28.092Z,102768.83
2018-04-19T10:47:55.655Z,102775.17
2018-04-19T10:50:23.218Z,102773.73
2018-04-19T10:52:50.768Z,102771.33
2018-04-19T10:55:18.375Z,102772.70
2018-04-19T10:57:45.948Z,102769.48
2018-04-19T11:00:13.475Z,102768.63
2018-04-19T11:02:41.055Z,102758.30
2018-04-19T11:05:08.593Z,102755.20
2018-04-19T11:07:36.128Z,102753.57
2018-04-19T11:10:03.674Z,102751.97
2018-04-19T11:12:31.191Z,102743.27
2018-04-19T11:14:58.764Z,102742.39
2018-04-19T11:17:26.289Z,102737.19
2018-04-19T11:19:53.820Z,102735.33
2018-04-19T11:22:21.344Z,102731.31
2018-04-19T11:24:48.878Z,102732.91
2018-04-19T11:27:16.396Z,102729.52
2018-04-19T11:29:43.920Z,102722.13
2018-04-19T11:32:11.447Z,102719.80
2018-04-19T11:34:38.976Z,102724.87
2018-04-19T11:37:06.598Z,102717.19
2018-04-19T11:39:34.156Z,102717.32
2018-04-19T11:42:01.718Z,102713.73
2018-04-19T11:44:29.255Z,102716.12
2018-04-19T11:46:56.772Z,102717.67
2018-04-19T11:49:24.400Z,102717.20
2018-04-19T11:51:51.925Z,102718.81
2018-04-19T11:54:19.480Z,102713.63
2018-04-19T11:56:47.046Z,102716.23
2018-04-19T11:59:14.571Z,102711.20
2018-04-19T12:01:42.126Z,102703.70
2018-04-19T12:04:09.656Z,102699.08
2018-04-19T12:06:37.172Z,102702.55
2018-04-19T12:09:05.592Z,102702.80
2018-04-19T12:11:33.157Z,102693.12
2018-04-19T12:14:00.720Z,102696.41
2018-04-19T12:16:28.262Z,102694.46
2018-04-19T12:18:55.788Z,102697.73
2018-04-19T12:21:23.329Z,102692.16
2018-04-19T12:23:50.854Z,102686.74
2018-04-19T12:26:18.390Z,102693.72
2018-04-19T12:28:45.924Z,102684.56
2018-04-19T12:31:13.500Z,102684.47
2018-04-19T12:33:41.025Z,102678.75
2018-04-19T12:36:08.555Z,102676.45
2018-04-19T12:38:36.100Z,102667.96
2018-04-19T12:41:03.684Z,102673.16
2018-04-19T12:43:31.228Z,102680.41
2018-04-19T12:45:58.762Z,102669.63
2018-04-19T12:48:26.288Z,102670.31
2018-04-19T12:50:53.805Z,102667.08
2018-04-19T12:53:21.341Z,102676.98
2018-04-19T12:55:48.924Z,102660.94
2018-04-19T12:58:16.443Z,102656.20
2018-04-19T13:00:44.050Z,102655.87
2018-04-19T13:03:11.582Z,102651.23
2018-04-19T13:05:39.100Z,102649.93
2018-04-19T13:08:06.711Z,102651.53
2018-04-19T13:10:34.287Z,102646.73
2018-04-19T13:13:01.821Z,102649.84
2018-04-19T13:15:29.342Z,102639.08
2018-04-19T13:17:56.971Z,102629.86
2018-04-19T13:20:24.496Z,102634.88
2018-04-19T13:22:52.020Z,102627.17
2018-04-19T13:25:19.549Z,102631.36
2018-04-19T13:27:47.072Z,102616.38
2018-04-19T13:30:14.599Z,102614.82
2018-04-19T13:32:42.123Z,102615.57
2018-04-19T13:35:09.682Z,102610.61
2018-04-19T13:37:37.208Z,102608.23
2018-04-19T13:40:04.730Z,102607.27
2018-04-19T13:42:32.261Z,102603.44
2018-04-19T13:44:59.833Z,102608.20
2018-04-19T13:47:27.362Z,102606.67
2018-04-19T13:49:54.891Z,102597.97
2018-04-19T13:52:22.415Z,102599.12
2018-04-19T13:54:49.957Z,102603.39
2018-04-19T13:57:17.484Z,102593.84
2018-04-19T13:59:45.074Z,102588.50
2018-04-19T14:02:12.606Z,102590.61
2018-04-19T14:04:40.208Z,102582.02
2018-04-19T14:07:07.724Z,102587.46
2018-04-19T14:09:35.259Z,102583.59
2018-04-19T14:12:02.887Z,102574.23
2018-04-19T14:14:30.413Z,102569.95
2018-04-19T14:16:57.940Z,102571.42
2018-04-19T14:19:25.485Z,102570.64
2018-04-19T14:21:53.035Z,102571.42
2018-04-19T14:24:20.556Z,102561.25
2018-04-19T14:26:49.032Z,102559.25
2018-04-19T14:29:16.547Z,102555.70
2018-04-19T14:31:44.182Z,102557.39
2018-04-19T14:34:11.721Z,102558.07
2018-04-19T14:36:39.259Z,102558.76
2018-04-19T14:39:06.795Z,102557.70
2018-04-19T14:41:34.320Z,102561.44
2018-04-19T14:44:01.861Z,102554.42
2018-04-19T14:46:29.429Z,102550.05
2018-04-19T14:48:56.960Z,102559.91
2018-04-19T14:51:24.481Z,102559.20
2018-04-19T14:53:52.020Z,102553.12
2018-04-19T14:56:19.548Z,102558.09
2018-04-19T14:58:47.135Z,102555.66
2018-04-19T15:01:14.667Z,102556.27
2018-04-19T15:03:42.179Z,102555.42
2018-04-19T15:06:09.712Z,102552.33
2018-04-19T15:08:37.245Z,102548.28
2018-04-19T15:11:04.760Z,102542.08
2018-04-19T15:13:32.290Z,102540.98
2018-04-19T15:15:59.821Z,102546.22
2018-04-19T15:18:27.340Z,102542.91
2018-04-19T15:20:54.972Z,102540.89
2018-04-19T15:23:22.500Z,102544.82
2018-04-19T15:25:50.032Z,102543.48
2018-04-19T15:28:17.580Z,102541.95
2018-04-19T15:30:45.105Z,102538.70
2018-04-19T15:33:12.637Z,102528.09
2018-04-19T15:35:40.225Z,102537.70
2018-04-19T15:38:07.782Z,102533.62
2018-04-19T15:40:35.302Z,102532.22
2018-04-19T15:43:02.916Z,102538.61
2018-04-19T15:45:30.585Z,102534.42
2018-04-19T15:47:58.104Z,102535.08
2018-04-19T15:50:25.617Z,102530.16
2018-04-19T15:52:53.143Z,102527.78
2018-04-19T15:55:20.680Z,102532.49
2018-04-19T15:57:48.191Z,102524.23
2018-04-19T16:00:15.725Z,102525.36
2018-04-19T16:02:43.282Z,102519.40
2018-04-19T16:05:10.943Z,102519.14
2018-04-19T16:07:38.504Z,102515.28
2018-04-19T16:10:06.034Z,102509.11
2018-04-19T16:12:33.547Z,102514.19
2018-04-19T16:15:01.101Z,102517.58
2018-04-19T16:17:28.716Z,102515.41
2018-04-19T16:19:56.241Z,102516.77
2018-04-19T16:22:23.759Z,102516.65
2018-04-19T16:24:51.302Z,102512.51
2018-04-19T16:27:18.851Z,102518.20
2018-04-19T16:29:46.365Z,102509.88
2018-04-19T16:32:13.897Z,102515.61
2018-04-19T16:34:41.421Z,102505.27
2018-04-19T16:37:08.953Z,102505.20
2018-04-19T16:39:36.530Z,102504.67
2018-04-19T16:42:04.075Z,102500.64
2018-04-19T16:44:31.592Z,102498.30
2018-04-19T16:46:59.151Z,102501.20
2018-04-19T16:49:26.683Z,102492.63
2018-04-19T16:51:54.195Z,102492.20
2018-04-19T16:54:21.712Z,102490.91
2018-04-19T16:56:49.287Z,102498.94
2018-04-19T16:59:16.820Z,102493.45
2018-04-19T17:01:44.338Z,102493.82
2018-04-19T17:04:11.856Z,102492.28
2018-04-19T17:06:39.381Z,102492.34
2018-04-19T17:09:07.193Z,102491.27
2018-04-19T17:11:34.754Z,102489.67
2018-04-19T17:14:02.418Z,102486.48
2018-04-19T17:16:30.227Z,102484.63
2018-04-19T17:18:57.826Z,102477.66
2018-04-19T17:21:25.351Z,102479.12
2018-04-19T17:23:52.890Z,102480.12
2018-04-19T17:26:20.516Z,102486.66
2018-04-19T17:28:48.052Z,102481.83
2018-04-19T17:31:15.569Z,102484.95
2018-04-19T17:33:43.183Z,102480.12
2018-04-19T17:36:10.869Z,102476.12
2018-04-19T17:38:38.631Z,102480.95
2018-04-19T17:41:06.160Z,102479.29
2018-04-19T17:43:33.674Z,102474.14
2018-04-19T17:46:01.311Z,102476.42
2018-04-19T17:48:28.833Z,102476.04
2018-04-19T17:50:56.380Z,102483.66
2018-04-19T17:53:23.895Z,102480.19
2018-04-19T17:55:51.415Z,102480.28
2018-04-19T17:58:18.987Z,102481.50
2018-04-19T18:00:46.559Z,102473.81
2018-04-19T18:03:14.071Z,102477.69
2018-04-19T18:05:41.683Z,102475.76
2018-04-19T18:08:09.215Z,102483.06
2018-04-19T18:10:36.800Z,102478.81
2018-04-19T18:13:04.329Z,102472.11
2018-04-19T18:15:31.889Z,102481.21
2018-04-19T18:17:59.449Z,102484.59
2018-04-19T18:20:27.013Z,102477.87
2018-04-19T18:22:54.548Z,102483.92
2018-04-19T18:25:22.095Z,102487.22
2018-04-19T18:27:49.628Z,102479.95
2018-04-19T18:30:17.186Z,102486.27
2018-04-19T18:32:44.737Z,102486.63
2018-04-19T18:35:12.298Z,102491.30
2018-04-19T18:37:39.826Z,102495.58
2018-04-19T18:40:07.423Z,102492.55
2018-04-19T18:42:34.976Z,102494.70
2018-04-19T18:45:02.510Z,102505.76
2018-04-19T18:47:30.046Z,102505.02
2018-04-19T18:49:57.606Z,102503.87
2018-04-19T18:52:25.144Z,102498.91
2018-04-19T18:54:52.685Z,102503.94
2018-04-19T18:57:20.204Z,102506.03
2018-04-19T18:59:47.736Z,102501.03
2018-04-19T19:02:15.369Z,102501.40
2018-04-19T19:04:43.020Z,102502.75
2018-04-19T19:07:10.551Z,102509.82
2018-04-19T19:09:38.141Z,102509.37
2018-04-19T19:12:05.696Z,102503.16
2018-04-19T19:14:34.149Z,102499.70
2018-04-19T19:20:12.923Z,102512.08
2018-04-19T19:22:40.456Z,102506.59
2018-04-19T19:25:08.052Z,102506.33
2018-04-19T19:27:35.573Z,102511.64
2018-04-19T19:30:03.093Z,102513.28
2018-04-19T19:32:30.721Z,102511.11
2018-04-19T19:34:58.257Z,102514.34
2018-04-19T19:37:25.772Z,102514.63
2018-04-19T19:39:53.303Z,102516.86
2018-04-19T19:42:20.832Z,102518.13
2018-04-19T19:44:48.350Z,102523.67
2018-04-19T19:47:15.882Z,102519.03
2018-04-19T19:49:43.407Z,102518.16
2018-04-19T19:52:10.923Z,102517.41
2018-04-19T19:54:38.456Z,102521.38
2018-04-19T19:57:05.984Z,102516.25
2018-04-19T19:59:33.539Z,102525.81
2018-04-19T20:02:01.081Z,102520.67
2018-04-19T20:04:28.695Z,102520.34
2018-04-19T20:06:56.226Z,102526.84
2018-04-19T20:09:23.743Z,102529.34
2018-04-19T20:11:51.381Z,102523.67
2018-04-19T20:14:18.904Z,102523.08
2018-04-19T20:16:46.420Z,102523.00
2018-04-19T20:19:14.061Z,102516.45
2018-04-19T20:21:41.596Z,102514.11
2018-04-19T20:24:09.164Z,102510.95
2018-04-19T20:26:36.692Z,102518.53
2018-04-19T20:29:04.225Z,102514.59
2018-04-19T20:31:31.865Z,102505.48
2018-04-19T20:33:59.404Z,102509.30
2018-04-19T20:36:26.974Z,102505.03
2018-04-19T20:38:54.497Z,102499.53
2018-04-19T20:41:22.024Z,102500.81
2018-04-19T20:43:49.541Z,102504.53
2018-04-19T20:46:17.118Z,102503.42
2018-04-19T20:48:44.660Z,102499.62
2018-04-19T20:51:12.468Z,102500.16
2018-04-19T20:53:40.310Z,102496.87
2018-04-19T20:56:08.083Z,102493.98
2018-04-19T20:58:35.807Z,102493.31
2018-04-19T21:01:03.606Z,102493.61
2018-04-19T21:03:31.264Z,102489.47
2018-04-19T21:05:58.826Z,102495.10
2018-04-19T21:08:26.389Z,102493.07
2018-04-19T21:10:53.945Z,102489.83
2018-04-19T21:13:21.488Z,102489.11
2018-04-19T21:15:49.017Z,102484.10
2018-04-19T21:18:16.548Z,102493.89
2018-04-19T21:20:44.076Z,102490.29
2018-04-19T21:23:11.604Z,102489.17
2018-04-19T21:25:39.123Z,102485.92
2018-04-19T21:28:06.639Z,102479.89
2018-04-19T21:30:34.172Z,102480.53
2018-04-19T21:33:01.711Z,102476.33
2018-04-19T21:35:29.241Z,102476.14
2018-04-19T21:37:56.783Z,102476.08
2018-04-19T21:40:24.317Z,102466.03
2018-04-19T21:42:51.848Z,102464.52
2018-04-19T21:45:19.374Z,102468.06
2018-04-19T21:47:46.934Z,102456.12
2018-04-19T21:50:14.456Z,102465.34
2018-04-19T21:52:41.975Z,102455.77
2018-04-19T21:55:09.612Z,102453.29
2018-04-19T21:57:37.129Z,102456.30
2018-04-19T22:00:04.659Z,102452.61
2018-04-19T22:02:32.187Z,102453.42
2018-04-19T22:04:59.720Z,102456.63
2018-04-19T22:07:27.603Z,102454.59
2018-04-19T22:09:55.179Z,102447.86
2018-04-19T22:12:22.693Z,102444.91
2018-04-19T22:14:50.297Z,102446.16
2018-04-19T22:17:17.824Z,102442.96
2018-04-19T22:19:45.386Z,102438.20
2018-04-19T22:22:12.908Z,102441.23
2018-04-19T22:24:40.436Z,102441.23
2018-04-19T22:27:07.962Z,102442.91
2018-04-19T22:29:35.486Z,102443.41
2018-04-19T22:32:02.995Z,102443.55
2018-04-19T22:34:30.552Z,102437.98
2018-04-19T22:36:58.133Z,102434.59
2018-04-19T22:39:25.650Z,102440.06
2018-04-19T22:41:53.244Z,102436.70
2018-04-19T22:44:20.770Z,102436.56
2018-04-19T22:46:48.374Z,102426.22
2018-04-19T22:49:15.887Z,102432.02
2018-04-19T22:51:43.418Z,102427.98
2018-04-19T22:54:10.951Z,102428.00
2018-04-19T22:56:38.496Z,102431.50
2018-04-19T22:59:06.020Z,102431.16
2018-04-19T23:01:33.553Z,102431.46
2018-04-19T23:04:01.092Z,102432.78
2018-04-19T23:06:28.652Z,102433.87
2018-04-19T23:08:56.208Z,102430.02
2018-04-19T23:11:23.732Z,102434.39
2018-04-19T23:13:51.326Z,102427.17
2018-04-19T23:16:18.851Z,102431.23
2018-04-19T23:18:46.404Z,102430.23
2018-04-19T23:21:13.944Z,102421.88
2018-04-19T23:23:41.466Z,102427.20
2018-04-19T23:26:08.980Z,102425.19
2018-04-19T23:28:36.505Z,102420.55
2018-04-19T23:31:04.044Z,102414.11
2018-04-19T23:33:31.575Z,102415.52
2018-04-19T23:35:59.096Z,102413.02
2018-04-19T23:38:26.619Z,102407.20
2018-04-19T23:40:54.140Z,102406.41
2018-04-19T23:43:21.674Z,102405.09
2018-04-19T23:45:49.198Z,102400.97
2018-04-19T23:48:16.756Z,102397.23
2018-04-19T23:50:44.288Z,102388.12
2018-04-19T23:53:11.805Z,102387.72
2018-04-19T23:55:39.334Z,102394.11
2018-04-19T23:58:06.850Z,102391.27
